createdAt,value
2016-10-17T00:00:04.152Z,1012.06
2016-10-17T00:00:44.850Z,1012.03
2016-10-17T00:01:25.548Z,1012.04
2016-10-17T00:02:06.232Z,1012.04
2016-10-17T00:02:46.927Z,1012.06
2016-10-17T00:03:27.621Z,1012.05
2016-10-17T00:04:08.301Z,1012.08
2016-10-17T00:04:49.020Z,1012.11
2016-10-17T00:05:29.703Z,1012.1
2016-10-17T00:06:10.376Z,1012.12
2016-10-17T00:06:51.042Z,1012.14
2016-10-17T00:07:31.767Z,1012.15
2016-10-17T00:08:12.487Z,1012.14
2016-10-17T00:08:53.197Z,1012.15
2016-10-17T00:09:33.915Z,1012.14
2016-10-17T00:10:14.597Z,1012.15
2016-10-17T00:10:55.268Z,1012.11
2016-10-17T00:11:35.954Z,1012.14
2016-10-17T00:12:16.661Z,1012.15
2016-10-17T00:12:57.385Z,1012.14
2016-10-17T00:13:38.053Z,1012.17
2016-10-17T00:14:18.777Z,1012.15
2016-10-17T00:14:59.490Z,1012.18
2016-10-17T00:15:40.130Z,1012.19
2016-10-17T00:16:20.815Z,1012.19
2016-10-17T00:17:01.516Z,1012.18
2016-10-17T00:17:42.203Z,1012.16
2016-10-17T00:18:22.906Z,1012.22
2016-10-17T00:19:03.558Z,1012.19
2016-10-17T00:19:44.243Z,1012.16
2016-10-17T00:20:24.918Z,1012.11
2016-10-17T00:21:05.596Z,1012.14
2016-10-17T00:21:46.280Z,1012.09
2016-10-17T00:22:26.989Z,1012.13
2016-10-17T00:23:07.650Z,1012.11
2016-10-17T00:23:48.378Z,1012.11
2016-10-17T00:24:29.065Z,1012.04
2016-10-17T00:25:09.735Z,1012.05
2016-10-17T00:25:50.422Z,1012.04
2016-10-17T00:26:31.148Z,1012.02
2016-10-17T00:27:11.774Z,1011.98
2016-10-17T00:27:52.452Z,1012.03
2016-10-17T00:28:33.141Z,1012.01
2016-10-17T00:29:13.848Z,1012.01
2016-10-17T00:29:54.510Z,1011.99
2016-10-17T00:30:35.180Z,1011.95
2016-10-17T00:31:15.871Z,1011.97
2016-10-17T00:31:56.545Z,1011.97
2016-10-17T00:32:37.235Z,1011.98
2016-10-17T00:33:17.947Z,1011.98
2016-10-17T00:33:58.627Z,1011.95
2016-10-17T00:34:39.315Z,1011.97
2016-10-17T00:35:20.019Z,1011.98
2016-10-17T00:36:00.673Z,1011.96
2016-10-17T00:36:41.350Z,1011.99
2016-10-17T00:37:22.047Z,1011.96
2016-10-17T00:38:02.682Z,1012
2016-10-17T00:38:43.388Z,1011.95
2016-10-17T00:39:24.069Z,1011.97
2016-10-17T00:40:04.758Z,1011.97
2016-10-17T00:40:45.449Z,1011.97
2016-10-17T00:41:26.149Z,1011.96
2016-10-17T00:42:06.842Z,1011.96
2016-10-17T00:42:47.568Z,1011.95
2016-10-17T00:43:28.278Z,1011.95
2016-10-17T00:44:08.975Z,1011.96
2016-10-17T00:44:49.664Z,1011.97
2016-10-17T00:45:30.372Z,1011.93
2016-10-17T00:46:11.065Z,1011.94
2016-10-17T00:46:51.733Z,1011.94
2016-10-17T00:47:32.444Z,1011.95
2016-10-17T00:48:13.106Z,1011.93
2016-10-17T00:48:53.753Z,1011.91
2016-10-17T00:49:34.471Z,1011.94
2016-10-17T00:50:15.203Z,1011.91
2016-10-17T00:50:55.919Z,1011.92
2016-10-17T00:51:36.607Z,1011.95
2016-10-17T00:52:17.286Z,1011.95
2016-10-17T00:52:57.977Z,1011.97
2016-10-17T00:53:38.668Z,1011.92
2016-10-17T00:54:19.337Z,1011.96
2016-10-17T00:55:00.008Z,1011.95
2016-10-17T00:55:40.732Z,1011.9
2016-10-17T00:56:21.421Z,1011.9
2016-10-17T00:57:02.089Z,1011.85
2016-10-17T00:57:42.783Z,1011.84
2016-10-17T00:58:23.513Z,1011.82
2016-10-17T00:59:04.129Z,1011.82
2016-10-17T00:59:44.823Z,1011.82
2016-10-17T01:00:25.521Z,1011.83
2016-10-17T01:01:06.221Z,1011.82
2016-10-17T01:01:46.896Z,1011.8
2016-10-17T01:02:27.585Z,1011.84
2016-10-17T01:03:08.273Z,1011.8
2016-10-17T01:03:48.972Z,1011.81
2016-10-17T01:04:29.649Z,1011.81
2016-10-17T01:05:10.296Z,1011.8
2016-10-17T01:05:51.001Z,1011.81
2016-10-17T01:06:31.667Z,1011.81
2016-10-17T01:07:12.365Z,1011.8
2016-10-17T01:07:53.057Z,1011.82
2016-10-17T01:08:33.759Z,1011.79
2016-10-17T01:09:14.419Z,1011.86
2016-10-17T01:09:55.116Z,1011.8
2016-10-17T01:10:35.801Z,1011.81
2016-10-17T01:11:16.450Z,1011.77
2016-10-17T01:11:57.174Z,1011.81
2016-10-17T01:12:37.872Z,1011.83
2016-10-17T01:13:18.536Z,1011.8
2016-10-17T01:13:59.213Z,1011.78
2016-10-17T01:14:39.919Z,1011.81
2016-10-17T01:15:20.599Z,1011.77
2016-10-17T01:16:01.282Z,1011.8
2016-10-17T01:16:41.990Z,1011.78
2016-10-17T01:17:22.667Z,1011.79
2016-10-17T01:18:03.380Z,1011.79
2016-10-17T01:18:44.054Z,1011.79
2016-10-17T01:19:24.772Z,1011.81
2016-10-17T01:20:05.450Z,1011.85
2016-10-17T01:20:46.085Z,1011.82
2016-10-17T01:21:26.784Z,1011.84
2016-10-17T01:22:07.467Z,1011.83
2016-10-17T01:22:48.180Z,1011.85
2016-10-17T01:23:28.847Z,1011.87
2016-10-17T01:24:09.527Z,1011.89
2016-10-17T01:24:50.226Z,1011.89
2016-10-17T01:25:30.888Z,1011.89
2016-10-17T01:26:11.590Z,1011.91
2016-10-17T01:26:52.280Z,1011.88
2016-10-17T01:27:32.958Z,1011.89
2016-10-17T01:28:13.620Z,1011.86
2016-10-17T01:28:54.324Z,1011.87
2016-10-17T01:29:35.021Z,1011.87
2016-10-17T01:30:15.660Z,1011.88
2016-10-17T01:30:56.388Z,1011.83
2016-10-17T01:31:37.045Z,1011.84
2016-10-17T01:32:17.821Z,1011.84
2016-10-17T01:32:58.516Z,1011.83
2016-10-17T01:33:39.193Z,1011.81
2016-10-17T01:34:19.910Z,1011.81
2016-10-17T01:35:00.598Z,1011.83
2016-10-17T01:35:41.270Z,1011.8
2016-10-17T01:36:21.955Z,1011.82
2016-10-17T01:37:02.647Z,1011.81
2016-10-17T01:37:43.327Z,1011.87
2016-10-17T01:38:24.020Z,1011.81
2016-10-17T01:39:04.745Z,1011.84
2016-10-17T01:39:45.411Z,1011.87
2016-10-17T01:40:26.103Z,1011.85
2016-10-17T01:41:06.772Z,1011.85
2016-10-17T01:41:47.489Z,1011.88
2016-10-17T01:42:28.202Z,1011.88
2016-10-17T01:43:08.924Z,1011.88
2016-10-17T01:43:49.612Z,1011.87
2016-10-17T01:44:30.307Z,1011.85
2016-10-17T01:45:11.011Z,1011.86
2016-10-17T01:45:51.630Z,1011.85
2016-10-17T01:46:32.315Z,1011.86
2016-10-17T01:47:13.017Z,1011.86
2016-10-17T01:47:53.699Z,1011.86
2016-10-17T01:48:34.414Z,1011.81
2016-10-17T01:49:15.111Z,1011.85
2016-10-17T01:49:55.835Z,1011.88
2016-10-17T01:50:36.538Z,1011.86
2016-10-17T01:51:17.238Z,1011.87
2016-10-17T01:51:57.921Z,1011.87
2016-10-17T01:52:38.601Z,1011.86
2016-10-17T01:53:19.283Z,1011.87
2016-10-17T01:54:00.025Z,1011.9
2016-10-17T01:54:40.700Z,1011.86
2016-10-17T01:55:21.391Z,1011.87
2016-10-17T01:56:02.122Z,1011.85
2016-10-17T01:56:42.831Z,1011.86
2016-10-17T01:57:23.527Z,1011.82
2016-10-17T01:58:04.239Z,1011.84
2016-10-17T01:58:44.902Z,1011.85
2016-10-17T01:59:25.602Z,1011.81
2016-10-17T02:00:06.248Z,1011.82
2016-10-17T02:00:46.963Z,1011.8
2016-10-17T02:01:27.678Z,1011.82
2016-10-17T02:02:08.373Z,1011.84
2016-10-17T02:02:49.039Z,1011.82
2016-10-17T02:03:29.715Z,1011.8
2016-10-17T02:04:10.422Z,1011.81
2016-10-17T02:04:51.077Z,1011.87
2016-10-17T02:05:31.787Z,1011.82
2016-10-17T02:06:12.472Z,1011.81
2016-10-17T02:06:53.203Z,1011.81
2016-10-17T02:07:33.948Z,1011.81
2016-10-17T02:08:14.567Z,1011.79
2016-10-17T02:08:55.270Z,1011.79
2016-10-17T02:09:35.956Z,1011.77
2016-10-17T02:10:16.635Z,1011.76
2016-10-17T02:10:57.291Z,1011.76
2016-10-17T02:11:37.981Z,1011.82
2016-10-17T02:12:18.623Z,1011.8
2016-10-17T02:12:59.316Z,1011.78
2016-10-17T02:13:40.032Z,1011.76
2016-10-17T02:14:20.685Z,1011.77
2016-10-17T02:15:01.371Z,1011.76
2016-10-17T02:15:42.093Z,1011.74
2016-10-17T02:16:22.792Z,1011.73
2016-10-17T02:17:03.463Z,1011.73
2016-10-17T02:17:44.161Z,1011.74
2016-10-17T02:18:24.800Z,1011.71
2016-10-17T02:19:05.498Z,1011.7
2016-10-17T02:19:46.167Z,1011.67
2016-10-17T02:20:26.843Z,1011.68
2016-10-17T02:21:07.531Z,1011.68
2016-10-17T02:21:48.202Z,1011.66
2016-10-17T02:22:28.921Z,1011.67
2016-10-17T02:23:09.600Z,1011.64
2016-10-17T02:23:50.284Z,1011.69
2016-10-17T02:24:30.975Z,1011.67
2016-10-17T02:25:11.661Z,1011.61
2016-10-17T02:25:52.361Z,1011.63
2016-10-17T02:26:33.075Z,1011.63
2016-10-17T02:27:13.772Z,1011.67
2016-10-17T02:27:54.464Z,1011.63
2016-10-17T02:28:35.132Z,1011.65
2016-10-17T02:29:15.844Z,1011.62
2016-10-17T02:29:56.557Z,1011.68
2016-10-17T02:30:37.263Z,1011.64
2016-10-17T02:31:17.910Z,1011.64
2016-10-17T02:31:58.540Z,1011.66
2016-10-17T02:32:39.274Z,1011.64
2016-10-17T02:33:19.932Z,1011.64
2016-10-17T02:34:00.629Z,1011.64
2016-10-17T02:34:41.302Z,1011.64
2016-10-17T02:35:22.025Z,1011.69
2016-10-17T02:36:02.671Z,1011.67
2016-10-17T02:36:43.336Z,1011.7
2016-10-17T02:37:24.107Z,1011.66
2016-10-17T02:38:04.803Z,1011.67
2016-10-17T02:38:45.472Z,1011.69
2016-10-17T02:39:26.191Z,1011.67
2016-10-17T02:40:06.872Z,1011.66
2016-10-17T02:40:47.560Z,1011.67
2016-10-17T02:41:28.244Z,1011.66
2016-10-17T02:42:08.959Z,1011.67
2016-10-17T02:42:49.603Z,1011.68
2016-10-17T02:43:30.295Z,1011.65
2016-10-17T02:44:11.013Z,1011.64
2016-10-17T02:44:51.715Z,1011.68
2016-10-17T02:45:32.401Z,1011.69
2016-10-17T02:46:13.128Z,1011.67
2016-10-17T02:46:53.770Z,1011.7
2016-10-17T02:47:34.411Z,1011.65
2016-10-17T02:48:15.115Z,1011.68
2016-10-17T02:48:55.782Z,1011.66
2016-10-17T02:49:36.517Z,1011.64
2016-10-17T02:50:17.187Z,1011.65
2016-10-17T02:50:57.884Z,1011.62
2016-10-17T02:51:38.548Z,1011.65
2016-10-17T02:52:19.267Z,1011.59
2016-10-17T02:52:59.959Z,1011.6
2016-10-17T02:53:40.657Z,1011.58
2016-10-17T02:54:21.354Z,1011.59
2016-10-17T02:55:02.082Z,1011.57
2016-10-17T02:55:42.772Z,1011.55
2016-10-17T02:56:23.388Z,1011.57
2016-10-17T02:57:04.078Z,1011.54
2016-10-17T02:57:44.758Z,1011.53
2016-10-17T02:58:25.470Z,1011.53
2016-10-17T02:59:06.151Z,1011.55
2016-10-17T02:59:46.853Z,1011.58
2016-10-17T03:00:27.593Z,1011.56
2016-10-17T03:01:08.284Z,1011.56
2016-10-17T03:01:48.973Z,1011.55
2016-10-17T03:02:29.679Z,1011.59
2016-10-17T03:03:10.399Z,1011.59
2016-10-17T03:03:51.038Z,1011.59
2016-10-17T03:04:31.687Z,1011.6
2016-10-17T03:05:12.405Z,1011.6
2016-10-17T03:05:53.081Z,1011.59
2016-10-17T03:06:33.749Z,1011.56
2016-10-17T03:07:14.562Z,1011.58
2016-10-17T03:07:55.220Z,1011.6
2016-10-17T03:08:35.920Z,1011.59
2016-10-17T03:09:16.560Z,1011.61
2016-10-17T03:09:57.275Z,1011.62
2016-10-17T03:10:37.943Z,1011.57
2016-10-17T03:11:18.636Z,1011.55
2016-10-17T03:11:59.299Z,1011.58
2016-10-17T03:12:39.943Z,1011.59
2016-10-17T03:13:20.618Z,1011.53
2016-10-17T03:14:01.333Z,1011.57
2016-10-17T03:14:42.001Z,1011.56
2016-10-17T03:15:22.673Z,1011.58
2016-10-17T03:16:03.377Z,1011.59
2016-10-17T03:16:44.016Z,1011.56
2016-10-17T03:17:24.723Z,1011.59
2016-10-17T03:18:05.378Z,1011.58
2016-10-17T03:18:46.051Z,1011.57
2016-10-17T03:19:26.766Z,1011.56
2016-10-17T03:20:07.470Z,1011.51
2016-10-17T03:20:48.180Z,1011.5
2016-10-17T03:21:28.824Z,1011.51
2016-10-17T03:22:09.543Z,1011.49
2016-10-17T03:22:50.206Z,1011.49
2016-10-17T03:23:30.881Z,1011.52
2016-10-17T03:24:11.534Z,1011.55
2016-10-17T03:24:52.221Z,1011.54
2016-10-17T03:25:32.925Z,1011.53
2016-10-17T03:26:13.625Z,1011.56
2016-10-17T03:26:54.340Z,1011.57
2016-10-17T03:27:35.035Z,1011.53
2016-10-17T03:28:15.768Z,1011.57
2016-10-17T03:28:56.423Z,1011.53
2016-10-17T03:29:37.153Z,1011.56
2016-10-17T03:30:17.842Z,1011.55
2016-10-17T03:30:58.517Z,1011.57
2016-10-17T03:31:39.243Z,1011.56
2016-10-17T03:32:19.896Z,1011.58
2016-10-17T03:33:00.586Z,1011.56
2016-10-17T03:33:41.280Z,1011.58
2016-10-17T03:34:22.009Z,1011.59
2016-10-17T03:35:02.705Z,1011.58
2016-10-17T03:35:43.426Z,1011.58
2016-10-17T03:36:24.053Z,1011.62
2016-10-17T03:37:04.777Z,1011.59
2016-10-17T03:37:45.514Z,1011.59
2016-10-17T03:38:26.227Z,1011.58
2016-10-17T03:39:06.886Z,1011.58
2016-10-17T03:39:47.535Z,1011.6
2016-10-17T03:40:28.198Z,1011.56
2016-10-17T03:41:08.874Z,1011.55
2016-10-17T03:41:49.602Z,1011.54
2016-10-17T03:42:30.247Z,1011.54
2016-10-17T03:43:10.933Z,1011.54
2016-10-17T03:43:51.590Z,1011.51
2016-10-17T03:44:32.301Z,1011.52
2016-10-17T03:45:12.972Z,1011.53
2016-10-17T03:45:53.715Z,1011.54
2016-10-17T03:46:34.408Z,1011.53
2016-10-17T03:47:15.106Z,1011.56
2016-10-17T03:47:55.780Z,1011.56
2016-10-17T03:48:36.488Z,1011.58
2016-10-17T03:49:17.170Z,1011.58
2016-10-17T03:49:57.849Z,1011.57
2016-10-17T03:50:38.555Z,1011.58
2016-10-17T03:51:19.240Z,1011.59
2016-10-17T03:51:59.914Z,1011.59
2016-10-17T03:52:40.631Z,1011.61
2016-10-17T03:53:21.354Z,1011.57
2016-10-17T03:54:02.047Z,1011.59
2016-10-17T03:54:42.747Z,1011.57
2016-10-17T03:55:23.445Z,1011.53
2016-10-17T03:56:04.127Z,1011.59
2016-10-17T03:56:44.802Z,1011.58
2016-10-17T03:57:25.518Z,1011.57
2016-10-17T03:58:06.193Z,1011.63
2016-10-17T03:58:46.881Z,1011.6
2016-10-17T03:59:27.540Z,1011.61
2016-10-17T04:00:08.228Z,1011.58
2016-10-17T04:00:48.871Z,1011.59
2016-10-17T04:01:29.560Z,1011.58
2016-10-17T04:02:10.253Z,1011.62
2016-10-17T04:02:50.927Z,1011.66
2016-10-17T04:03:31.588Z,1011.68
2016-10-17T04:04:12.267Z,1011.66
2016-10-17T04:04:52.952Z,1011.66
2016-10-17T04:05:33.625Z,1011.67
2016-10-17T04:06:14.329Z,1011.69
2016-10-17T04:06:55.026Z,1011.67
2016-10-17T04:07:35.705Z,1011.7
2016-10-17T04:08:16.390Z,1011.67
2016-10-17T04:08:57.082Z,1011.68
2016-10-17T04:09:37.816Z,1011.66
2016-10-17T04:10:18.511Z,1011.66
2016-10-17T04:10:59.206Z,1011.66
2016-10-17T04:11:39.871Z,1011.68
2016-10-17T04:12:20.551Z,1011.7
2016-10-17T04:13:01.192Z,1011.65
2016-10-17T04:13:41.838Z,1011.64
2016-10-17T04:14:22.561Z,1011.67
2016-10-17T04:15:03.237Z,1011.7
2016-10-17T04:15:43.922Z,1011.73
2016-10-17T04:16:24.623Z,1011.68
2016-10-17T04:17:05.265Z,1011.7
2016-10-17T04:17:45.952Z,1011.66
2016-10-17T04:18:26.644Z,1011.68
2016-10-17T04:19:07.320Z,1011.67
2016-10-17T04:19:48.019Z,1011.68
2016-10-17T04:20:28.697Z,1011.66
2016-10-17T04:21:09.431Z,1011.68
2016-10-17T04:21:50.094Z,1011.69
2016-10-17T04:22:30.777Z,1011.67
2016-10-17T04:23:11.468Z,1011.7
2016-10-17T04:23:52.116Z,1011.7
2016-10-17T04:24:32.771Z,1011.71
2016-10-17T04:25:13.463Z,1011.71
2016-10-17T04:25:54.140Z,1011.76
2016-10-17T04:26:34.835Z,1011.75
2016-10-17T04:27:15.552Z,1011.75
2016-10-17T04:27:56.259Z,1011.76
2016-10-17T04:28:36.989Z,1011.76
2016-10-17T04:29:17.641Z,1011.75
2016-10-17T04:29:58.350Z,1011.75
2016-10-17T04:30:38.999Z,1011.75
2016-10-17T04:31:19.654Z,1011.76
2016-10-17T04:32:00.326Z,1011.72
2016-10-17T04:32:41.020Z,1011.7
2016-10-17T04:33:21.642Z,1011.67
2016-10-17T04:34:02.314Z,1011.7
2016-10-17T04:34:42.962Z,1011.66
2016-10-17T04:35:23.656Z,1011.72
2016-10-17T04:36:04.369Z,1011.72
2016-10-17T04:36:45.035Z,1011.72
2016-10-17T04:37:25.700Z,1011.72
2016-10-17T04:38:06.391Z,1011.7
2016-10-17T04:38:47.051Z,1011.71
2016-10-17T04:39:27.700Z,1011.71
2016-10-17T04:40:08.389Z,1011.71
2016-10-17T04:40:49.059Z,1011.68
2016-10-17T04:41:29.768Z,1011.71
2016-10-17T04:42:10.467Z,1011.69
2016-10-17T04:42:51.124Z,1011.72
2016-10-17T04:43:31.823Z,1011.68
2016-10-17T04:44:12.566Z,1011.69
2016-10-17T04:44:53.264Z,1011.68
2016-10-17T04:45:33.933Z,1011.68
2016-10-17T04:46:14.665Z,1011.65
2016-10-17T04:46:55.324Z,1011.67
2016-10-17T04:47:36.002Z,1011.61
2016-10-17T04:48:16.682Z,1011.6
2016-10-17T04:48:57.420Z,1011.6
2016-10-17T04:49:38.098Z,1011.6
2016-10-17T04:50:18.812Z,1011.61
2016-10-17T04:50:59.499Z,1011.58
2016-10-17T04:51:40.247Z,1011.6
2016-10-17T04:52:20.949Z,1011.63
2016-10-17T04:53:01.618Z,1011.59
2016-10-17T04:53:42.334Z,1011.6
2016-10-17T04:54:23.008Z,1011.58
2016-10-17T04:55:03.675Z,1011.58
2016-10-17T04:55:44.339Z,1011.59
2016-10-17T04:56:25.052Z,1011.59
2016-10-17T04:57:05.761Z,1011.61
2016-10-17T04:57:46.479Z,1011.62
2016-10-17T04:58:27.117Z,1011.61
2016-10-17T04:59:07.792Z,1011.61
2016-10-17T04:59:48.444Z,1011.63
2016-10-17T05:00:29.117Z,1011.65
2016-10-17T05:01:09.773Z,1011.61
2016-10-17T05:01:50.487Z,1011.67
2016-10-17T05:02:31.139Z,1011.65
2016-10-17T05:03:11.779Z,1011.65
2016-10-17T05:03:52.472Z,1011.63
2016-10-17T05:04:33.154Z,1011.64
2016-10-17T05:05:13.852Z,1011.66
2016-10-17T05:05:54.535Z,1011.64
2016-10-17T05:06:35.219Z,1011.63
2016-10-17T05:07:15.926Z,1011.64
2016-10-17T05:07:56.621Z,1011.63
2016-10-17T05:08:37.335Z,1011.67
2016-10-17T05:09:18.022Z,1011.66
2016-10-17T05:09:58.685Z,1011.65
2016-10-17T05:10:39.342Z,1011.64
2016-10-17T05:11:20.018Z,1011.69
2016-10-17T05:12:00.700Z,1011.63
2016-10-17T05:12:41.396Z,1011.63
2016-10-17T05:13:22.053Z,1011.65
2016-10-17T05:14:02.705Z,1011.6
2016-10-17T05:14:43.399Z,1011.6
2016-10-17T05:15:24.084Z,1011.58
2016-10-17T05:16:04.802Z,1011.59
2016-10-17T05:16:45.497Z,1011.6
2016-10-17T05:17:26.197Z,1011.63
2016-10-17T05:18:06.856Z,1011.65
2016-10-17T05:18:47.539Z,1011.63
2016-10-17T05:19:28.238Z,1011.65
2016-10-17T05:20:08.903Z,1011.65
2016-10-17T05:20:49.625Z,1011.66
2016-10-17T05:21:30.341Z,1011.69
2016-10-17T05:22:11.032Z,1011.68
2016-10-17T05:22:51.717Z,1011.67
2016-10-17T05:23:32.430Z,1011.62
2016-10-17T05:24:13.105Z,1011.61
2016-10-17T05:24:53.777Z,1011.64
2016-10-17T05:25:34.398Z,1011.6
2016-10-17T05:26:15.101Z,1011.57
2016-10-17T05:26:55.777Z,1011.59
2016-10-17T05:27:36.475Z,1011.59
2016-10-17T05:28:17.136Z,1011.59
2016-10-17T05:28:57.814Z,1011.59
2016-10-17T05:29:38.499Z,1011.58
2016-10-17T05:30:19.233Z,1011.6
2016-10-17T05:30:59.949Z,1011.57
2016-10-17T05:31:40.648Z,1011.61
2016-10-17T05:32:21.306Z,1011.58
2016-10-17T05:33:01.961Z,1011.58
2016-10-17T05:33:42.661Z,1011.59
2016-10-17T05:34:23.341Z,1011.58
2016-10-17T05:35:04.021Z,1011.57
2016-10-17T05:35:44.702Z,1011.58
2016-10-17T05:36:25.403Z,1011.58
2016-10-17T05:37:06.092Z,1011.6
2016-10-17T05:37:46.774Z,1011.6
2016-10-17T05:38:27.431Z,1011.59
2016-10-17T05:39:08.110Z,1011.56
2016-10-17T05:39:48.763Z,1011.54
2016-10-17T05:40:29.471Z,1011.53
2016-10-17T05:41:10.199Z,1011.55
2016-10-17T05:41:50.860Z,1011.54
2016-10-17T05:42:31.543Z,1011.55
2016-10-17T05:43:12.196Z,1011.59
2016-10-17T05:43:52.902Z,1011.55
2016-10-17T05:44:33.607Z,1011.57
2016-10-17T05:45:14.272Z,1011.58
2016-10-17T05:45:54.966Z,1011.6
2016-10-17T05:46:35.642Z,1011.59
2016-10-17T05:47:16.342Z,1011.61
2016-10-17T05:47:57.126Z,1011.61
2016-10-17T05:48:37.851Z,1011.6
2016-10-17T05:49:18.536Z,1011.62
2016-10-17T05:49:59.226Z,1011.61
2016-10-17T05:50:39.944Z,1011.59
2016-10-17T05:51:20.588Z,1011.58
2016-10-17T05:52:01.279Z,1011.6
2016-10-17T05:52:41.980Z,1011.6
2016-10-17T05:53:22.679Z,1011.6
2016-10-17T05:54:03.413Z,1011.66
2016-10-17T05:54:44.118Z,1011.61
2016-10-17T05:55:24.854Z,1011.62
2016-10-17T05:56:05.527Z,1011.65
2016-10-17T05:56:46.241Z,1011.64
2016-10-17T05:57:26.872Z,1011.63
2016-10-17T05:58:07.615Z,1011.63
2016-10-17T05:58:48.362Z,1011.61
2016-10-17T05:59:29.072Z,1011.67
2016-10-17T06:00:09.782Z,1011.65
2016-10-17T06:00:50.501Z,1011.63
2016-10-17T06:01:31.162Z,1011.65
2016-10-17T06:02:11.886Z,1011.66
2016-10-17T06:02:52.569Z,1011.66
2016-10-17T06:03:33.274Z,1011.64
2016-10-17T06:04:13.993Z,1011.66
2016-10-17T06:04:54.711Z,1011.66
2016-10-17T06:05:35.406Z,1011.68
2016-10-17T06:06:16.114Z,1011.68
2016-10-17T06:06:56.824Z,1011.68
2016-10-17T06:07:37.561Z,1011.71
2016-10-17T06:08:18.203Z,1011.7
2016-10-17T06:08:58.880Z,1011.69
2016-10-17T06:09:39.634Z,1011.72
2016-10-17T06:10:20.340Z,1011.7
2016-10-17T06:11:01.031Z,1011.75
2016-10-17T06:11:41.745Z,1011.71
2016-10-17T06:12:22.389Z,1011.74
2016-10-17T06:13:03.038Z,1011.75
2016-10-17T06:13:43.706Z,1011.75
2016-10-17T06:14:24.415Z,1011.78
2016-10-17T06:15:05.135Z,1011.79
2016-10-17T06:15:45.812Z,1011.74
2016-10-17T06:16:26.502Z,1011.8
2016-10-17T06:17:07.224Z,1011.79
2016-10-17T06:17:47.904Z,1011.82
2016-10-17T06:18:28.581Z,1011.84
2016-10-17T06:19:09.290Z,1011.83
2016-10-17T06:19:49.991Z,1011.87
2016-10-17T06:20:30.644Z,1011.84
2016-10-17T06:21:11.406Z,1011.88
2016-10-17T06:21:52.110Z,1011.87
2016-10-17T06:22:32.807Z,1011.88
2016-10-17T06:23:13.513Z,1011.87
2016-10-17T06:23:54.168Z,1011.86
2016-10-17T06:24:34.922Z,1011.92
2016-10-17T06:25:15.631Z,1011.88
2016-10-17T06:25:56.325Z,1011.86
2016-10-17T06:26:37.018Z,1011.88
2016-10-17T06:27:17.768Z,1011.91
2016-10-17T06:27:58.448Z,1011.92
2016-10-17T06:28:39.116Z,1011.93
2016-10-17T06:29:19.825Z,1011.94
2016-10-17T06:30:00.521Z,1011.95
2016-10-17T06:30:41.245Z,1011.93
2016-10-17T06:31:21.960Z,1011.94
2016-10-17T06:32:02.621Z,1011.92
2016-10-17T06:32:43.299Z,1011.97
2016-10-17T06:33:24.037Z,1011.92
2016-10-17T06:34:04.752Z,1011.92
2016-10-17T06:34:45.451Z,1011.95
2016-10-17T06:35:26.196Z,1011.96
2016-10-17T06:36:06.936Z,1011.93
2016-10-17T06:36:47.626Z,1011.98
2016-10-17T06:37:28.325Z,1011.96
2016-10-17T06:38:08.963Z,1011.92
2016-10-17T06:38:49.651Z,1011.96
2016-10-17T06:39:30.315Z,1011.99
2016-10-17T06:40:10.996Z,1011.95
2016-10-17T06:40:51.696Z,1012
2016-10-17T06:41:32.364Z,1012.02
2016-10-17T06:42:13.013Z,1012.02
2016-10-17T06:42:53.666Z,1012.07
2016-10-17T06:43:34.329Z,1012.08
2016-10-17T06:44:15.030Z,1012.09
2016-10-17T06:44:55.743Z,1012.09
2016-10-17T06:45:36.471Z,1012.1
2016-10-17T06:46:17.138Z,1012.11
2016-10-17T06:46:57.892Z,1012.14
2016-10-17T06:47:38.602Z,1012.15
2016-10-17T06:48:19.306Z,1012.17
2016-10-17T06:49:00.055Z,1012.15
2016-10-17T06:49:40.801Z,1012.15
2016-10-17T06:50:21.486Z,1012.17
2016-10-17T06:51:02.298Z,1012.16
2016-10-17T06:51:42.942Z,1012.14
2016-10-17T06:52:23.639Z,1012.17
2016-10-17T06:53:04.333Z,1012.2
2016-10-17T06:53:44.980Z,1012.21
2016-10-17T06:54:25.672Z,1012.22
2016-10-17T06:55:06.416Z,1012.25
2016-10-17T06:55:47.119Z,1012.24
2016-10-17T06:56:27.856Z,1012.26
2016-10-17T06:57:08.573Z,1012.26
2016-10-17T06:57:49.342Z,1012.3
2016-10-17T06:58:30.060Z,1012.33
2016-10-17T06:59:10.803Z,1012.33
2016-10-17T06:59:51.501Z,1012.3
2016-10-17T07:00:32.202Z,1012.35
2016-10-17T07:01:12.858Z,1012.36
2016-10-17T07:01:53.720Z,1012.34
2016-10-17T07:02:34.473Z,1012.34
2016-10-17T07:03:15.114Z,1012.37
2016-10-17T07:03:55.756Z,1012.36
2016-10-17T07:04:36.469Z,1012.38
2016-10-17T07:05:17.171Z,1012.38
2016-10-17T07:05:57.875Z,1012.41
2016-10-17T07:06:38.582Z,1012.41
2016-10-17T07:07:19.272Z,1012.4
2016-10-17T07:07:59.972Z,1012.4
2016-10-17T07:08:40.656Z,1012.4
2016-10-17T07:09:21.370Z,1012.44
2016-10-17T07:10:02.018Z,1012.48
2016-10-17T07:10:42.701Z,1012.46
2016-10-17T07:11:23.446Z,1012.51
2016-10-17T07:12:04.106Z,1012.49
2016-10-17T07:12:44.796Z,1012.51
2016-10-17T07:13:25.472Z,1012.55
2016-10-17T07:14:06.231Z,1012.51
2016-10-17T07:14:46.959Z,1012.56
2016-10-17T07:15:27.669Z,1012.57
2016-10-17T07:16:08.410Z,1012.52
2016-10-17T07:16:49.117Z,1012.59
2016-10-17T07:17:29.759Z,1012.57
2016-10-17T07:18:10.426Z,1012.57
2016-10-17T07:18:51.145Z,1012.6
2016-10-17T07:19:31.824Z,1012.56
2016-10-17T07:20:12.583Z,1012.6
2016-10-17T07:20:53.296Z,1012.61
2016-10-17T07:21:33.979Z,1012.61
2016-10-17T07:22:14.725Z,1012.62
2016-10-17T07:22:55.433Z,1012.63
2016-10-17T07:23:36.166Z,1012.67
2016-10-17T07:24:16.853Z,1012.67
2016-10-17T07:24:57.508Z,1012.65
2016-10-17T07:25:38.177Z,1012.68
2016-10-17T07:26:18.895Z,1012.7
2016-10-17T07:26:59.600Z,1012.67
2016-10-17T07:27:40.280Z,1012.69
2016-10-17T07:28:20.927Z,1012.77
2016-10-17T07:29:01.641Z,1012.78
2016-10-17T07:29:42.342Z,1012.77
2016-10-17T07:30:23.147Z,1012.79
2016-10-17T07:31:03.883Z,1012.8
2016-10-17T07:31:44.574Z,1012.82
2016-10-17T07:32:25.219Z,1012.8
2016-10-17T07:33:05.922Z,1012.81
2016-10-17T07:33:46.615Z,1012.83
2016-10-17T07:34:27.419Z,1012.85
2016-10-17T07:35:08.154Z,1012.82
2016-10-17T07:35:49.642Z,1012.82
2016-10-17T07:36:29.528Z,1012.84
2016-10-17T07:37:10.162Z,1012.84
2016-10-17T07:37:50.927Z,1012.83
2016-10-17T07:38:31.621Z,1012.84
2016-10-17T07:39:12.335Z,1012.84
2016-10-17T07:39:53.027Z,1012.85
2016-10-17T07:40:33.734Z,1012.84
2016-10-17T07:41:14.452Z,1012.85
2016-10-17T07:41:55.206Z,1012.87
2016-10-17T07:42:35.889Z,1012.83
2016-10-17T07:43:17.414Z,1012.83
2016-10-17T07:43:58.090Z,1012.84
2016-10-17T07:44:38.792Z,1012.86
2016-10-17T07:45:19.559Z,1012.83
2016-10-17T07:46:00.242Z,1012.83
2016-10-17T07:46:40.961Z,1012.83
2016-10-17T07:47:21.604Z,1012.9
2016-10-17T07:48:02.327Z,1012.88
2016-10-17T07:48:43.016Z,1012.89
2016-10-17T07:49:23.693Z,1012.94
2016-10-17T07:50:04.420Z,1012.91
2016-10-17T07:50:45.091Z,1012.98
2016-10-17T07:51:25.731Z,1013.01
2016-10-17T07:52:06.420Z,1012.99
2016-10-17T07:52:47.136Z,1012.98
2016-10-17T07:53:27.825Z,1013
2016-10-17T07:54:08.448Z,1012.98
2016-10-17T07:54:49.149Z,1012.98
2016-10-17T07:55:29.820Z,1013
2016-10-17T07:56:10.536Z,1013
2016-10-17T07:56:51.216Z,1012.94
2016-10-17T07:57:31.938Z,1012.94
2016-10-17T07:58:12.677Z,1012.94
2016-10-17T07:58:53.400Z,1012.98
2016-10-17T08:01:22.096Z,1012.96
2016-10-17T08:02:02.814Z,1013.01
2016-10-17T08:02:43.540Z,1013
2016-10-17T08:03:24.231Z,1013.01
2016-10-17T08:04:05.918Z,1013.02
2016-10-17T08:04:46.660Z,1013.05
2016-10-17T08:05:27.365Z,1013.06
2016-10-17T08:06:08.048Z,1013.03
2016-10-17T08:06:48.754Z,1013.05
2016-10-17T08:07:30.013Z,1013.06
2016-10-17T08:08:10.128Z,1013.06
2016-10-17T08:08:50.834Z,1013.08
2016-10-17T08:09:31.506Z,1013.09
2016-10-17T08:10:12.260Z,1013.08
2016-10-17T08:10:53.023Z,1013.08
2016-10-17T08:11:33.783Z,1013.12
2016-10-17T08:12:14.530Z,1013.14
2016-10-17T08:12:55.255Z,1013.11
2016-10-17T08:13:35.921Z,1013.12
2016-10-17T08:14:16.613Z,1013.15
2016-10-17T08:14:57.314Z,1013.14
2016-10-17T08:15:37.939Z,1013.19